Terminal Aerodrome Forecast
Issued by NWS

Home | Current Version | Previous Version | Text Only | Print | Product List | Glossary On
Versions: 1 2 3 4 5 6 7 8 9 10 11 12 13 14 15 16 17 18
000
FTUS41 KBTV 251736
TAFMPV
TAF
KMPV 251736Z 2518/2618 32014KT P6SM BKN030
      TEMPO 2518/2522 BKN035
     FM252200 32008KT P6SM SCT035
     FM260100 33004KT P6SM SKC
     FM261200 VRB03KT P6SM BKN200=

USA.gov is the U.S. government's official web portal to all federal, state and local government web resources and services.